createdAt,value
2023-03-19T00:00:42.696Z,4.47
2023-03-19T00:03:09.667Z,4.52
2023-03-19T00:05:36.797Z,4.51
2023-03-19T00:08:35.130Z,4.50
2023-03-19T00:11:47.662Z,4.43
2023-03-19T00:18:30.701Z,4.35
2023-03-19T00:25:08.502Z,4.38
2023-03-19T00:35:28.381Z,4.34
2023-03-19T00:38:25.277Z,4.36
2023-03-19T00:53:35.086Z,4.37
2023-03-19T00:59:54.786Z,4.31
2023-03-19T01:12:45.240Z,4.35
2023-03-19T01:18:28.190Z,4.44
2023-03-19T01:24:00.510Z,4.42
2023-03-19T01:26:50.670Z,4.39
2023-03-19T01:38:39.246Z,4.35
2023-03-19T01:45:27.272Z,4.41
2023-03-19T01:50:51.328Z,4.41
2023-03-19T01:55:02.668Z,4.25
2023-03-19T01:58:07.518Z,4.35
2023-03-19T02:01:18.593Z,4.46
2023-03-19T02:03:48.100Z,4.41
2023-03-19T02:06:20.196Z,4.39
2023-03-19T02:09:42.776Z,4.34
2023-03-19T02:12:17.053Z,4.39
2023-03-19T02:15:37.373Z,4.41
2023-03-19T02:18:50.932Z,4.35
2023-03-19T02:21:26.155Z,4.38
2023-03-19T02:34:21.096Z,4.41
2023-03-19T02:41:46.446Z,4.36
2023-03-19T02:44:36.134Z,4.34
2023-03-19T02:50:26.658Z,4.33
2023-03-19T02:53:01.082Z,4.34
2023-03-19T02:56:13.915Z,4.35
2023-03-19T03:02:19.041Z,4.42
2023-03-19T03:05:16.590Z,4.38
2023-03-19T03:12:07.589Z,4.39
2023-03-19T03:17:52.036Z,4.42
2023-03-19T03:20:24.299Z,4.40
2023-03-19T03:23:04.884Z,4.40
2023-03-19T03:25:45.466Z,4.37
2023-03-19T03:28:46.306Z,4.32
2023-03-19T03:35:18.126Z,4.31
2023-03-19T03:41:42.352Z,4.37
2023-03-19T03:44:29.614Z,4.30
2023-03-19T03:47:10.399Z,4.39
2023-03-19T03:50:18.837Z,4.43
2023-03-19T03:53:05.573Z,4.39
2023-03-19T03:56:04.487Z,4.38
2023-03-19T03:58:48.319Z,4.35
2023-03-19T04:01:59.120Z,4.35
2023-03-19T04:07:44.034Z,4.34
2023-03-19T04:10:12.145Z,4.38
2023-03-19T04:12:43.123Z,4.40
2023-03-19T04:15:11.522Z,4.50
2023-03-19T04:17:40.976Z,4.51
2023-03-19T04:21:05.428Z,4.38
2023-03-19T04:23:50.072Z,4.28
2023-03-19T04:26:23.052Z,4.40
2023-03-19T04:28:49.998Z,4.37
2023-03-19T04:31:22.688Z,4.39
2023-03-19T04:33:53.072Z,4.45
2023-03-19T04:36:20.254Z,4.46
2023-03-19T04:38:47.238Z,4.42
2023-03-19T04:41:17.141Z,4.46
2023-03-19T04:43:43.936Z,4.49
2023-03-19T04:46:11.640Z,4.52
2023-03-19T04:48:39.941Z,4.54
2023-03-19T04:51:09.787Z,4.60
2023-03-19T04:53:38.262Z,4.67
2023-03-19T04:56:30.271Z,4.75
2023-03-19T04:59:23.051Z,4.69
2023-03-19T05:02:09.901Z,4.73
2023-03-19T05:04:41.372Z,4.74
2023-03-19T05:10:50.500Z,4.89
2023-03-19T05:16:45.757Z,5.14
2023-03-19T05:19:26.765Z,5.16
2023-03-19T05:21:59.356Z,5.18
2023-03-19T05:27:19.317Z,5.28
2023-03-19T05:30:13.560Z,5.37
2023-03-19T05:32:47.187Z,5.52
2023-03-19T05:35:14.691Z,5.66
2023-03-19T05:38:09.742Z,5.82
2023-03-19T05:41:06.630Z,5.92
2023-03-19T05:46:23.836Z,6.19
2023-03-19T05:48:51.808Z,6.25
2023-03-19T05:51:22.530Z,6.31
2023-03-19T05:53:51.190Z,6.36
2023-03-19T05:56:22.459Z,6.52
2023-03-19T05:58:51.605Z,6.58
2023-03-19T06:01:23.808Z,6.85
2023-03-19T06:04:23.826Z,6.99
2023-03-19T06:12:56.771Z,7.30
2023-03-19T06:15:24.574Z,7.39
2023-03-19T06:17:59.378Z,7.73
2023-03-19T06:23:22.262Z,8.40
2023-03-19T06:25:55.388Z,8.65
2023-03-19T06:28:30.329Z,8.61
2023-03-19T06:31:15.768Z,8.68
2023-03-19T06:34:30.363Z,8.79
2023-03-19T06:37:09.107Z,8.88
2023-03-19T06:39:43.503Z,9.26
2023-03-19T06:42:18.449Z,9.44
2023-03-19T06:45:10.934Z,9.63
2023-03-19T06:50:28.095Z,10.21
2023-03-19T06:52:57.475Z,10.27
2023-03-19T06:55:31.967Z,10.38
2023-03-19T06:57:59.073Z,10.71
2023-03-19T07:00:54.072Z,10.97
2023-03-19T07:03:35.198Z,11.04
2023-03-19T07:06:16.842Z,11.02
2023-03-19T07:08:48.649Z,11.11
2023-03-19T07:11:20.398Z,11.11
2023-03-19T07:13:51.386Z,11.09
2023-03-19T07:16:58.921Z,11.15
2023-03-19T07:22:25.184Z,11.14
2023-03-19T07:25:19.586Z,11.17
2023-03-19T07:28:39.644Z,11.07
2023-03-19T07:30:40.764Z,11.27
2023-03-19T07:36:15.972Z,11.47
2023-03-19T07:39:09.060Z,11.61
2023-03-19T07:42:10.285Z,11.65
2023-03-19T07:44:55.548Z,11.77
2023-03-19T07:47:32.819Z,11.64
2023-03-19T07:50:05.159Z,11.87
2023-03-19T07:52:37.336Z,12.07
2023-03-19T07:55:12.257Z,12.35
2023-03-19T07:57:46.013Z,12.22
2023-03-19T08:00:17.075Z,12.34
2023-03-19T08:02:57.932Z,12.62
2023-03-19T08:05:47.539Z,12.78
2023-03-19T08:08:49.686Z,13.02
2023-03-19T08:11:17.908Z,13.15
2023-03-19T08:13:46.257Z,13.30
2023-03-19T08:16:21.871Z,13.52
2023-03-19T08:18:51.298Z,13.55
2023-03-19T08:24:25.317Z,13.31
2023-03-19T08:26:57.254Z,13.28
2023-03-19T08:29:28.310Z,13.25
2023-03-19T08:32:07.581Z,13.36
2023-03-19T08:34:35.119Z,13.29
2023-03-19T08:37:12.241Z,13.25
2023-03-19T08:39:40.980Z,13.19
2023-03-19T08:42:08.154Z,13.27
2023-03-19T08:44:36.472Z,13.40
2023-03-19T08:47:05.361Z,13.59
2023-03-19T08:49:35.658Z,13.72
2023-03-19T08:52:03.928Z,13.85
2023-03-19T08:54:31.396Z,13.92
2023-03-19T08:57:00.918Z,14.08
2023-03-19T08:59:28.658Z,14.04
2023-03-19T09:01:58.858Z,14.06
2023-03-19T09:04:29.528Z,13.93
2023-03-19T09:09:40.885Z,14.41
2023-03-19T09:12:11.584Z,14.64
2023-03-19T09:14:42.984Z,14.81
2023-03-19T09:17:15.994Z,14.99
2023-03-19T09:19:44.654Z,14.72
2023-03-19T09:22:12.490Z,14.51
2023-03-19T09:24:40.815Z,14.48
2023-03-19T09:27:09.162Z,14.60
2023-03-19T09:29:37.363Z,14.80
2023-03-19T09:32:09.621Z,14.88
2023-03-19T09:34:42.369Z,14.98
2023-03-19T09:37:17.656Z,15.04
2023-03-19T09:40:00.558Z,15.06
2023-03-19T09:42:54.195Z,15.00
2023-03-19T09:45:25.714Z,15.14
2023-03-19T09:48:05.228Z,15.30
2023-03-19T09:50:44.455Z,15.25
2023-03-19T09:53:35.659Z,15.47
2023-03-19T09:56:18.596Z,15.47
2023-03-19T09:58:47.793Z,15.52
2023-03-19T10:01:42.424Z,15.18
2023-03-19T10:04:32.666Z,15.19
2023-03-19T10:07:46.213Z,15.33
2023-03-19T10:10:49.907Z,15.45
2023-03-19T10:14:17.207Z,15.67
2023-03-19T10:16:50.594Z,15.31
2023-03-19T10:19:31.741Z,15.34
2023-03-19T10:22:07.853Z,15.22
2023-03-19T10:24:42.586Z,15.47
2023-03-19T10:27:23.338Z,15.76
2023-03-19T10:29:54.736Z,15.93
2023-03-19T10:33:29.130Z,15.90
2023-03-19T10:36:10.261Z,16.22
2023-03-19T10:38:48.435Z,16.17
2023-03-19T10:41:30.940Z,16.33
2023-03-19T10:44:05.412Z,16.35
2023-03-19T10:46:41.772Z,16.27
2023-03-19T10:49:57.651Z,16.24
2023-03-19T10:52:33.399Z,16.05
2023-03-19T10:55:15.846Z,16.09
2023-03-19T10:57:44.445Z,16.17
2023-03-19T11:00:24.728Z,16.20
2023-03-19T11:02:57.060Z,16.23
2023-03-19T11:05:31.934Z,16.37
2023-03-19T11:08:34.567Z,16.47
2023-03-19T11:11:03.389Z,16.42
2023-03-19T11:13:31.789Z,16.50
2023-03-19T11:16:03.989Z,16.49
2023-03-19T11:19:00.918Z,16.47
2023-03-19T11:21:33.063Z,16.71
2023-03-19T11:24:04.014Z,16.71
2023-03-19T11:26:33.102Z,16.56
2023-03-19T11:29:05.592Z,16.66
2023-03-19T11:32:21.052Z,16.74
2023-03-19T11:35:08.128Z,16.72
2023-03-19T11:37:55.774Z,16.87
2023-03-19T11:40:53.361Z,16.92
2023-03-19T11:43:42.354Z,16.86
2023-03-19T11:46:23.012Z,16.81
2023-03-19T11:49:06.748Z,16.88
2023-03-19T11:52:00.967Z,16.80
2023-03-19T11:54:53.565Z,16.73
2023-03-19T11:57:47.758Z,16.77
2023-03-19T12:00:29.025Z,16.90
2023-03-19T12:03:20.553Z,16.86
2023-03-19T12:06:09.059Z,16.90
2023-03-19T12:09:01.356Z,16.64
2023-03-19T12:11:42.711Z,16.70
2023-03-19T12:14:37.878Z,16.68
2023-03-19T12:17:20.588Z,16.71
2023-03-19T12:20:20.852Z,16.67
2023-03-19T12:22:57.725Z,16.73
2023-03-19T12:25:30.212Z,16.82
2023-03-19T12:28:43.709Z,16.93
2023-03-19T12:31:30.123Z,16.85
2023-03-19T12:34:15.633Z,16.96
2023-03-19T12:37:05.426Z,16.68
2023-03-19T12:39:42.303Z,16.63
2023-03-19T12:42:17.377Z,16.32
2023-03-19T12:44:49.899Z,16.33
2023-03-19T12:47:27.285Z,16.46
2023-03-19T12:50:09.162Z,16.54
2023-03-19T16:30:54.325Z,12.45
2023-03-19T16:33:21.684Z,12.30
2023-03-19T16:35:55.579Z,12.15
2023-03-19T16:38:28.729Z,11.95
2023-03-19T16:41:34.277Z,11.81
2023-03-19T16:44:14.345Z,11.61
2023-03-19T16:46:42.688Z,11.43
2023-03-19T16:49:13.499Z,11.27
2023-03-19T16:51:44.893Z,11.10
2023-03-19T16:54:20.390Z,10.91
2023-03-19T16:56:50.702Z,10.71
2023-03-19T16:59:31.010Z,10.57
2023-03-19T17:01:59.916Z,10.40
2023-03-19T17:04:42.017Z,10.23
2023-03-19T17:07:10.439Z,10.11
2023-03-19T17:09:38.637Z,9.99
2023-03-19T17:12:09.878Z,9.87
2023-03-19T17:15:04.829Z,9.73
2023-03-19T17:17:32.796Z,9.55
2023-03-19T17:19:59.932Z,9.42
2023-03-19T17:22:28.246Z,9.29
2023-03-19T17:24:56.599Z,9.19
2023-03-19T17:27:38.289Z,9.03
2023-03-19T17:30:06.366Z,8.86
2023-03-19T17:33:07.492Z,8.76
2023-03-19T17:35:42.996Z,8.60
2023-03-19T17:38:23.624Z,8.48
2023-03-19T17:41:12.287Z,8.38
2023-03-19T17:43:44.630Z,8.34
2023-03-19T17:46:37.185Z,8.22
2023-03-19T17:49:07.172Z,8.14
2023-03-19T17:52:20.752Z,8.09
2023-03-19T17:54:49.140Z,7.88
2023-03-19T18:00:28.806Z,7.68
2023-03-19T18:03:42.670Z,7.58
2023-03-19T18:08:39.366Z,7.46
2023-03-19T18:09:56.695Z,7.34
2023-03-19T18:12:40.662Z,7.27
2023-03-19T18:15:32.328Z,7.22
2023-03-19T18:18:10.333Z,7.14
2023-03-19T18:20:49.531Z,7.01
2023-03-19T18:23:22.645Z,6.94
2023-03-19T18:25:56.382Z,6.89
2023-03-19T18:29:56.738Z,6.87
2023-03-19T18:39:13.616Z,6.62
2023-03-19T18:42:09.204Z,6.50
2023-03-19T18:46:30.281Z,6.46
2023-03-19T18:48:39.234Z,6.35
2023-03-19T18:54:23.128Z,6.23
2023-03-19T18:57:14.965Z,6.21
2023-03-19T19:07:00.647Z,6.04
2023-03-19T19:17:45.119Z,5.84
2023-03-19T19:21:05.846Z,5.77
2023-03-19T19:24:28.948Z,5.71
2023-03-19T19:28:03.643Z,5.68
2023-03-19T19:33:49.906Z,5.57
2023-03-19T19:39:52.472Z,5.46
2023-03-19T19:46:29.361Z,5.42
2023-03-19T19:49:41.622Z,5.33
2023-03-19T19:52:58.840Z,5.31
2023-03-19T19:56:07.967Z,5.21
2023-03-19T19:58:42.784Z,5.15
2023-03-19T20:01:59.886Z,5.12
2023-03-19T20:05:14.824Z,5.02
2023-03-19T20:07:49.385Z,4.98
2023-03-19T20:10:21.056Z,4.95
2023-03-19T20:13:24.601Z,4.89
2023-03-19T20:16:03.917Z,4.98
2023-03-19T20:18:39.438Z,4.86
2023-03-19T20:21:10.132Z,4.87
2023-03-19T20:23:49.913Z,4.83
2023-03-19T20:26:25.954Z,4.86
2023-03-19T20:29:17.576Z,4.80
2023-03-19T20:31:48.542Z,4.76
2023-03-19T20:34:36.390Z,4.64
2023-03-19T20:37:06.258Z,4.67
2023-03-19T20:40:02.356Z,4.60
2023-03-19T20:42:36.668Z,4.60
2023-03-19T20:45:16.118Z,4.56
2023-03-19T20:47:45.926Z,4.56
2023-03-19T20:50:23.053Z,4.52
2023-03-19T20:53:07.231Z,4.47
2023-03-19T20:55:41.321Z,4.42
2023-03-19T20:58:40.096Z,4.37
2023-03-19T21:03:54.360Z,4.34
2023-03-19T21:06:27.611Z,4.32
2023-03-19T21:11:46.666Z,4.33
2023-03-19T21:14:27.816Z,4.24
2023-03-19T21:17:21.859Z,4.10
2023-03-19T21:19:56.336Z,4.01
2023-03-19T21:22:40.132Z,3.98
2023-03-19T21:25:16.194Z,3.98
2023-03-19T21:27:56.352Z,3.91
2023-03-19T21:30:27.174Z,3.83
2023-03-19T21:33:00.620Z,3.78
2023-03-19T21:35:28.501Z,3.77
2023-03-19T21:38:05.606Z,3.77
2023-03-19T21:40:40.966Z,3.74
2023-03-19T21:43:41.161Z,3.71
2023-03-19T21:46:24.742Z,3.63
2023-03-19T21:48:59.271Z,3.60
2023-03-19T21:51:36.802Z,3.56
2023-03-19T21:56:59.300Z,3.50
2023-03-19T21:59:35.655Z,3.50
2023-03-19T22:02:08.403Z,3.45
2023-03-19T22:04:49.465Z,3.44
2023-03-19T22:07:26.838Z,3.46
2023-03-19T22:10:04.084Z,3.40
2023-03-19T22:12:41.301Z,3.36
2023-03-19T22:15:44.867Z,3.36
2023-03-19T22:18:37.332Z,3.28
2023-03-19T22:21:14.721Z,3.27
2023-03-19T22:23:43.393Z,3.22
2023-03-19T22:26:45.128Z,3.22
2023-03-19T22:29:52.043Z,3.14
2023-03-19T22:32:29.263Z,3.09
2023-03-19T22:34:57.979Z,3.05
2023-03-19T22:37:31.801Z,3.05
2023-03-19T22:40:03.799Z,3.18
2023-03-19T22:42:35.175Z,3.18
2023-03-19T22:45:09.008Z,3.11
2023-03-19T22:47:43.563Z,3.04
2023-03-19T22:50:51.975Z,3.02
2023-03-19T22:53:40.942Z,2.96
2023-03-19T22:56:26.546Z,2.95
2023-03-19T22:58:55.165Z,3.02
2023-03-19T23:01:26.212Z,3.03
2023-03-19T23:04:09.466Z,2.99
2023-03-19T23:06:42.531Z,2.91
2023-03-19T23:09:38.912Z,2.82
2023-03-19T23:12:14.603Z,2.80
2023-03-19T23:14:44.036Z,2.76
2023-03-19T23:20:07.422Z,2.84
2023-03-19T23:22:35.869Z,2.80
2023-03-19T23:25:07.900Z,2.74
2023-03-19T23:27:41.660Z,2.73
2023-03-19T23:30:43.638Z,2.71
2023-03-19T23:36:07.924Z,2.60
2023-03-19T23:38:51.709Z,2.61
2023-03-19T23:42:09.002Z,2.57
2023-03-19T23:44:38.108Z,2.55
2023-03-19T23:47:21.923Z,2.50
2023-03-19T23:49:51.548Z,2.50
2023-03-19T23:52:24.241Z,2.48
2023-03-19T23:54:58.666Z,2.39
2023-03-19T23:57:34.549Z,2.37
